Time;durP1;ratioP1;P1;durP2;ratioP2;P2;SDS_P1;SDS_P2;PMS_P1;PMS_P2;Temp;Humidity;BMP_temperature;BMP_pressure;BME280_temperature;BME280_humidity;BME280_pressure;Samples;Min_cycle;Max_cycle;Signal;HPM_P1;HPM_P2
2022/06/10 00:01:07;;;;;;;10.60;2.92;;;;;;;;;;4982521;28;20034;-87
2022/06/10 00:03:35;;;;;;;7.38;2.97;;;;;;;;;;4981936;28;20062;-87
2022/06/10 00:06:04;;;;;;;18.17;2.95;;;;;;;;;;4967240;28;21074;-86
2022/06/10 00:08:32;;;;;;;9.65;3.25;;;;;;;;;;4965605;28;20038;-87
2022/06/10 00:11:05;;;;;;;11.88;2.58;;;;;;;;;;4971826;28;20026;-87
2022/06/10 00:13:36;;;;;;;15.82;3.45;;;;;;;;;;4969228;28;20018;-87
2022/06/10 00:16:03;;;;;;;13.18;2.83;;;;;;;;;;4960507;28;20023;-88
2022/06/10 00:18:30;;;;;;;10.13;2.97;;;;;;;;;;4979360;28;20485;-86
2022/06/10 00:20:58;;;;;;;16.63;3.88;;;;;;;;;;4982308;28;20073;-86
2022/06/10 00:23:24;;;;;;;9.07;3.13;;;;;;;;;;4967059;28;20518;-87
2022/06/10 00:25:50;;;;;;;13.63;2.63;;;;;;;;;;4965841;28;20131;-87
2022/06/10 00:28:16;;;;;;;10.02;2.95;;;;;;;;;;4967692;28;20038;-86
2022/06/10 00:30:43;;;;;;;9.10;2.75;;;;;;;;;;4963704;28;20035;-86
2022/06/10 00:33:09;;;;;;;13.88;2.85;;;;;;;;;;4965922;28;20030;-86
2022/06/10 00:35:35;;;;;;;11.43;2.40;;;;;;;;;;4964443;28;20058;-86
2022/06/10 00:38:01;;;;;;;7.82;2.60;;;;;;;;;;4964496;28;20040;-87
2022/06/10 00:40:29;;;;;;;8.82;2.83;;;;;;;;;;4966296;28;20563;-86
2022/06/10 00:42:56;;;;;;;11.70;3.38;;;;;;;;;;4969606;28;20125;-87
2022/06/10 00:45:41;;;;;;;14.40;3.20;;;;;;;;;;4966365;28;20026;-86
2022/06/10 00:48:09;;;;;;;5.75;2.92;;;;;;;;;;4966439;28;20038;-87
2022/06/10 00:50:37;;;;;;;11.05;2.92;;;;;;;;;;4964469;28;20415;-86
2022/06/10 00:53:05;;;;;;;17.60;2.83;;;;;;;;;;4964802;28;20038;-86
2022/06/10 00:55:36;;;;;;;12.70;3.40;;;;;;;;;;4978407;28;20228;-86
2022/06/10 00:58:07;;;;;;;14.70;3.15;;;;;;;;;;4967813;28;20033;-87
2022/06/10 01:00:36;;;;;;;10.75;2.58;;;;;;;;;;4977183;28;20034;-87
2022/06/10 01:03:03;;;;;;;13.40;3.03;;;;;;;;;;4979446;28;20533;-87
2022/06/10 01:05:29;;;;;;;11.80;2.58;;;;;;;;;;4968364;28;20116;-87
2022/06/10 01:08:03;;;;;;;10.77;2.72;;;;;;;;;;4970476;28;20293;-87
2022/06/10 01:10:32;;;;;;;8.45;3.03;;;;;;;;;;4961287;28;20042;-87
2022/06/10 01:13:17;;;;;;;12.52;2.83;;;;;;;;;;4983581;28;20041;-87
2022/06/10 01:15:49;;;;;;;11.07;2.95;;;;;;;;;;4964167;28;20439;-87
2022/06/10 01:18:15;;;;;;;16.85;2.60;;;;;;;;;;4966184;28;20461;-87
2022/06/10 01:21:17;;;;;;;14.00;3.05;;;;;;;;;;4971335;28;20142;-87
2022/06/10 01:23:55;;;;;;;8.30;3.28;;;;;;;;;;4871530;29;20040;-87
2022/06/10 01:27:47;;;;;;;11.68;2.97;;;;;;;;;;4960998;28;20056;-87
2022/06/10 01:29:37;;;;;;;15.55;2.58;;;;;;;;;;4981542;28;20181;-87
2022/06/10 01:32:08;;;;;;;12.45;4.03;;;;;;;;;;4966095;28;20042;-86
2022/06/10 01:34:37;;;;;;;14.45;3.13;;;;;;;;;;4963172;28;20665;-87
2022/06/10 01:37:07;;;;;;;11.90;2.85;;;;;;;;;;4962843;28;20034;-86
2022/06/10 01:39:59;;;;;;;8.98;2.97;;;;;;;;;;4982275;28;20096;-87
2022/06/10 01:42:33;;;;;;;12.70;3.30;;;;;;;;;;4960860;28;20128;-87
2022/06/10 01:45:03;;;;;;;14.85;5.10;;;;;;;;;;4961851;28;20037;-87
2022/06/10 01:47:29;;;;;;;8.38;4.07;;;;;;;;;;4970178;28;20043;-86
2022/06/10 01:49:57;;;;;;;12.68;3.15;;;;;;;;;;4970475;28;20034;-87
2022/06/10 01:52:32;;;;;;;14.50;3.75;;;;;;;;;;4965851;28;20037;-87
2022/06/10 01:55:09;;;;;;;9.57;3.78;;;;;;;;;;4963213;28;20711;-86
2022/06/10 01:57:38;;;;;;;15.38;3.35;;;;;;;;;;4971368;28;20027;-86
2022/06/10 02:00:07;;;;;;;12.27;3.75;;;;;;;;;;4971005;28;20478;-87
2022/06/10 02:02:35;;;;;;;9.88;3.45;;;;;;;;;;4984322;28;20097;-87
2022/06/10 02:05:06;;;;;;;11.10;3.22;;;;;;;;;;4983757;28;20049;-87
2022/06/10 02:07:34;;;;;;;10.25;3.15;;;;;;;;;;4964694;28;20034;-87
2022/06/10 02:10:03;;;;;;;10.82;3.55;;;;;;;;;;4965898;28;20042;-87
2022/06/10 02:12:35;;;;;;;14.55;3.28;;;;;;;;;;4976661;28;20103;-86
2022/06/10 02:15:03;;;;;;;15.90;4.72;;;;;;;;;;4968119;28;20918;-86
2022/06/10 02:17:36;;;;;;;7.25;3.78;;;;;;;;;;4985321;28;20038;-87
2022/06/10 02:20:02;;;;;;;10.75;3.75;;;;;;;;;;4964921;28;20035;-87
2022/06/10 02:22:31;;;;;;;15.85;3.80;;;;;;;;;;4963406;28;20540;-86
2022/06/10 02:25:00;;;;;;;8.40;3.30;;;;;;;;;;4964680;28;20042;-87
2022/06/10 02:27:32;;;;;;;13.18;3.90;;;;;;;;;;4985816;28;20041;-86
2022/06/10 02:30:07;;;;;;;13.52;3.47;;;;;;;;;;4964234;28;20063;-86
2022/06/10 02:32:34;;;;;;;11.43;3.85;;;;;;;;;;4978736;28;20101;-88
2022/06/10 02:35:01;;;;;;;11.68;3.40;;;;;;;;;;4979406;28;20027;-87
2022/06/10 02:37:46;;;;;;;7.15;3.20;;;;;;;;;;4969855;28;20411;-87
2022/06/10 02:40:32;;;;;;;11.70;3.25;;;;;;;;;;4979919;28;20026;-87
2022/06/10 02:43:08;;;;;;;11.35;3.22;;;;;;;;;;4975277;28;20067;-87
2022/06/10 02:45:53;;;;;;;10.45;3.40;;;;;;;;;;4965376;28;20607;-86
2022/06/10 02:48:32;;;;;;;17.30;3.60;;;;;;;;;;4965149;28;20096;-87
2022/06/10 02:50:58;;;;;;;12.27;3.13;;;;;;;;;;4963281;28;20030;-87
2022/06/10 02:53:24;;;;;;;9.73;3.50;;;;;;;;;;4965066;28;20470;-87
2022/06/10 02:55:50;;;;;;;20.92;3.28;;;;;;;;;;4968346;28;20038;-87
2022/06/10 03:01:13;;;;;;;22.38;4.30;;;;;;;;;;4981440;28;20045;-87
2022/06/10 03:03:58;;;;;;;16.05;4.25;;;;;;;;;;4963224;28;20026;-87
2022/06/10 03:06:37;;;;;;;9.07;3.10;;;;;;;;;;4962427;28;20029;-87
2022/06/10 03:09:24;;;;;;;13.27;3.67;;;;;;;;;;4968020;28;20037;-86
2022/06/10 03:11:57;;;;;;;16.67;4.25;;;;;;;;;;4974466;28;20030;-86
2022/06/10 03:14:23;;;;;;;16.23;3.78;;;;;;;;;;4963618;28;20119;-85
2022/06/10 03:16:58;;;;;;;16.60;4.03;;;;;;;;;;4965239;28;20054;-87
2022/06/10 03:19:33;;;;;;;8.88;3.50;;;;;;;;;;4978310;28;20023;-87
2022/06/10 03:22:23;;;;;;;15.07;4.03;;;;;;;;;;4964542;28;20054;-86
2022/06/10 03:25:04;;;;;;;16.00;3.88;;;;;;;;;;4953418;28;20686;-86
2022/06/10 03:27:43;;;;;;;21.98;4.32;;;;;;;;;;4968486;28;20027;-86
2022/06/10 03:30:14;;;;;;;11.30;3.80;;;;;;;;;;4963705;28;20038;-87
2022/06/10 03:32:40;;;;;;;15.40;3.92;;;;;;;;;;4961656;28;20072;-87
2022/06/10 03:35:09;;;;;;;15.90;5.18;;;;;;;;;;4968558;28;20034;-88
2022/06/10 03:37:37;;;;;;;15.35;3.70;;;;;;;;;;4965792;28;20026;-86
2022/06/10 03:40:04;;;;;;;13.90;3.88;;;;;;;;;;4966007;28;20045;-87
2022/06/10 03:42:30;;;;;;;15.57;3.30;;;;;;;;;;4982674;28;20037;-87
2022/06/10 03:44:58;;;;;;;21.98;3.90;;;;;;;;;;4980570;28;20106;-87
2022/06/10 03:47:30;;;;;;;14.27;4.43;;;;;;;;;;4963315;28;20470;-87
2022/06/10 03:50:06;;;;;;;15.85;3.88;;;;;;;;;;4965516;28;20047;-87
2022/06/10 03:52:32;;;;;;;8.45;3.55;;;;;;;;;;4967333;28;20034;-87
2022/06/10 03:54:59;;;;;;;13.25;4.03;;;;;;;;;;4965902;28;20628;-86
2022/06/10 03:57:25;;;;;;;14.85;3.17;;;;;;;;;;4970135;28;20030;-86
2022/06/10 03:59:51;;;;;;;11.38;3.03;;;;;;;;;;4984236;28;20033;-87
2022/06/10 04:02:17;;;;;;;14.60;2.95;;;;;;;;;;4965632;28;20494;-87
2022/06/10 04:04:44;;;;;;;16.40;2.88;;;;;;;;;;4967132;28;20042;-87
2022/06/10 04:07:11;;;;;;;10.00;3.15;;;;;;;;;;4969313;28;20053;-86
2022/06/10 04:09:37;;;;;;;11.65;2.85;;;;;;;;;;4985608;28;20030;-87
2022/06/10 04:12:04;;;;;;;13.82;3.33;;;;;;;;;;4982012;28;20115;-87
2022/06/10 04:14:30;;;;;;;13.18;3.05;;;;;;;;;;4964398;28;20038;-87
2022/06/10 04:16:56;;;;;;;11.68;3.40;;;;;;;;;;4966204;28;20023;-87
2022/06/10 04:19:22;;;;;;;7.15;2.70;;;;;;;;;;4969937;28;20042;-86
2022/06/10 04:21:48;;;;;;;13.85;3.40;;;;;;;;;;4970477;28;20038;-87
2022/06/10 04:24:14;;;;;;;11.40;3.30;;;;;;;;;;4966557;28;20584;-86
2022/06/10 04:26:40;;;;;;;11.55;3.20;;;;;;;;;;4982549;28;20109;-87
2022/06/10 04:29:06;;;;;;;18.77;3.97;;;;;;;;;;4967735;28;20409;-87
2022/06/10 04:31:32;;;;;;;14.25;4.57;;;;;;;;;;4967903;28;20363;-86
2022/06/10 04:33:58;;;;;;;6.85;3.10;;;;;;;;;;4966250;28;20031;-87
2022/06/10 04:36:24;;;;;;;8.30;2.53;;;;;;;;;;4981561;28;20026;-86
2022/06/10 04:38:57;;;;;;;8.80;2.58;;;;;;;;;;4969359;28;20034;-86
2022/06/10 04:41:23;;;;;;;12.43;3.22;;;;;;;;;;4966926;28;20517;-86
2022/06/10 04:43:50;;;;;;;8.88;3.00;;;;;;;;;;4964351;28;20042;-87
2022/06/10 04:46:24;;;;;;;12.88;2.70;;;;;;;;;;4968498;28;20026;-87
2022/06/10 04:48:51;;;;;;;19.70;3.40;;;;;;;;;;4963040;28;20055;-87
2022/06/10 04:51:17;;;;;;;21.40;3.15;;;;;;;;;;4963764;28;20149;-87
2022/06/10 04:53:43;;;;;;;16.38;3.83;;;;;;;;;;4962502;28;20141;-87
2022/06/10 04:56:09;;;;;;;14.82;3.17;;;;;;;;;;4968700;28;20506;-87
2022/06/10 04:58:35;;;;;;;13.82;3.20;;;;;;;;;;4967669;28;20042;-87
2022/06/10 05:01:01;;;;;;;14.43;3.10;;;;;;;;;;4967400;28;20047;-86
2022/06/10 05:03:27;;;;;;;10.05;3.13;;;;;;;;;;4968069;28;20046;-86
2022/06/10 05:05:53;;;;;;;10.77;3.00;;;;;;;;;;4965943;28;20420;-87
2022/06/10 05:08:19;;;;;;;7.80;2.58;;;;;;;;;;4967953;28;20038;-86
2022/06/10 05:10:47;;;;;;;18.25;2.65;;;;;;;;;;4969015;28;20107;-87
2022/06/10 05:13:16;;;;;;;11.30;2.42;;;;;;;;;;4968400;28;20383;-86
2022/06/10 05:15:42;;;;;;;15.75;3.58;;;;;;;;;;4971135;28;20061;-87
2022/06/10 05:18:08;;;;;;;11.00;2.90;;;;;;;;;;4969039;28;20117;-86
2022/06/10 05:20:40;;;;;;;20.50;3.25;;;;;;;;;;4971533;28;20042;-87
2022/06/10 05:23:07;;;;;;;9.85;2.80;;;;;;;;;;4982943;28;20027;-87
2022/06/10 05:25:33;;;;;;;11.55;2.85;;;;;;;;;;4970221;28;20096;-87
2022/06/10 05:28:00;;;;;;;13.57;4.15;;;;;;;;;;4970691;28;20033;-87
2022/06/10 05:30:28;;;;;;;16.92;3.15;;;;;;;;;;4981459;28;20038;-86
2022/06/10 05:32:54;;;;;;;11.65;2.63;;;;;;;;;;4963649;28;20125;-87
2022/06/10 05:35:20;;;;;;;17.95;2.65;;;;;;;;;;4967160;28;20121;-87
2022/06/10 05:37:47;;;;;;;13.65;4.10;;;;;;;;;;4978384;28;20042;-86
2022/06/10 05:40:13;;;;;;;15.02;3.95;;;;;;;;;;4967724;28;20034;-87
2022/06/10 05:42:40;;;;;;;11.27;3.10;;;;;;;;;;4962120;28;20063;-87
2022/06/10 05:45:07;;;;;;;13.48;2.88;;;;;;;;;;4964495;28;21241;-86
2022/06/10 05:47:34;;;;;;;11.57;3.15;;;;;;;;;;4975730;28;20044;-86
2022/06/10 05:50:01;;;;;;;15.52;2.53;;;;;;;;;;4965923;28;20046;-87
2022/06/10 05:52:29;;;;;;;14.73;2.58;;;;;;;;;;4977214;28;20073;-86
2022/06/10 05:54:56;;;;;;;18.65;3.10;;;;;;;;;;4966036;28;20034;-86
2022/06/10 05:57:22;;;;;;;20.95;3.85;;;;;;;;;;4967011;28;20370;-86
2022/06/10 05:59:49;;;;;;;16.50;2.90;;;;;;;;;;4963456;28;20041;-86
2022/06/10 06:02:16;;;;;;;11.65;2.92;;;;;;;;;;4967396;28;20037;-86
2022/06/10 06:04:42;;;;;;;13.88;2.85;;;;;;;;;;4981834;28;20034;-84
2022/06/10 06:07:08;;;;;;;22.08;3.90;;;;;;;;;;4977421;28;20066;-86
2022/06/10 06:09:35;;;;;;;17.45;3.72;;;;;;;;;;4966324;28;20027;-87
2022/06/10 06:12:01;;;;;;;14.75;3.10;;;;;;;;;;4985186;28;20653;-86
2022/06/10 06:14:28;;;;;;;16.55;2.83;;;;;;;;;;4968376;28;20530;-86
2022/06/10 06:16:56;;;;;;;15.82;3.00;;;;;;;;;;4958139;28;20503;-86
2022/06/10 06:19:23;;;;;;;10.80;2.50;;;;;;;;;;4976637;28;20397;-87
2022/06/10 06:21:49;;;;;;;14.15;3.58;;;;;;;;;;4976278;28;20039;-87
2022/06/10 06:24:15;;;;;;;12.02;3.90;;;;;;;;;;4979927;28;20105;-86
2022/06/10 06:26:41;;;;;;;12.98;3.10;;;;;;;;;;4968481;28;20475;-87
2022/06/10 06:29:08;;;;;;;12.50;3.88;;;;;;;;;;4970176;28;20030;-86
2022/06/10 06:31:34;;;;;;;11.95;2.83;;;;;;;;;;4968168;28;20506;-86
2022/06/10 06:34:00;;;;;;;17.13;3.67;;;;;;;;;;4965600;28;20136;-86
2022/06/10 06:36:27;;;;;;;9.57;3.03;;;;;;;;;;4965633;28;20026;-87
2022/06/10 06:38:53;;;;;;;15.73;3.45;;;;;;;;;;4965952;28;20042;-87
2022/06/10 06:41:19;;;;;;;7.85;2.80;;;;;;;;;;4966380;28;20038;-87
2022/06/10 06:43:46;;;;;;;10.80;3.38;;;;;;;;;;4978941;28;20022;-86
2022/06/10 06:46:13;;;;;;;8.82;2.90;;;;;;;;;;4966433;28;20494;-86
2022/06/10 06:48:39;;;;;;;6.45;2.80;;;;;;;;;;4982786;28;20076;-87
2022/06/10 06:51:12;;;;;;;21.45;4.80;;;;;;;;;;4965300;28;20048;-87
2022/06/10 06:53:38;;;;;;;14.98;4.07;;;;;;;;;;4968617;28;20514;-86
2022/06/10 06:56:05;;;;;;;14.80;3.55;;;;;;;;;;4963636;28;20045;-87
2022/06/10 06:58:32;;;;;;;17.50;4.57;;;;;;;;;;4966599;28;20034;-87
2022/06/10 07:00:58;;;;;;;12.18;3.50;;;;;;;;;;4964478;28;20355;-87
2022/06/10 07:03:25;;;;;;;20.52;4.32;;;;;;;;;;4959964;28;20030;-86
2022/06/10 07:05:51;;;;;;;14.13;5.30;;;;;;;;;;4962399;28;21196;-86
2022/06/10 07:08:17;;;;;;;14.18;4.00;;;;;;;;;;4962619;28;20030;-86
2022/06/10 07:10:44;;;;;;;17.15;4.18;;;;;;;;;;4964912;28;20073;-88
2022/06/10 07:13:10;;;;;;;14.68;4.32;;;;;;;;;;4958868;28;20386;-87
2022/06/10 07:15:41;;;;;;;14.73;3.72;;;;;;;;;;4965173;28;20026;-87
2022/06/10 07:18:07;;;;;;;17.60;4.05;;;;;;;;;;4967742;28;20077;-87
2022/06/10 07:20:35;;;;;;;19.45;4.63;;;;;;;;;;4978000;28;20034;-87
2022/06/10 07:23:01;;;;;;;19.27;3.85;;;;;;;;;;4978050;28;20041;-87
2022/06/10 07:25:28;;;;;;;9.25;3.47;;;;;;;;;;4959373;28;20117;-87
2022/06/10 07:27:55;;;;;;;10.05;3.33;;;;;;;;;;4965498;28;20034;-87
2022/06/10 07:30:22;;;;;;;18.10;3.88;;;;;;;;;;4965901;28;20056;-87
2022/06/10 07:32:48;;;;;;;17.00;3.03;;;;;;;;;;4957186;28;20113;-87
2022/06/10 07:35:15;;;;;;;21.83;4.55;;;;;;;;;;4955986;28;20031;-87
2022/06/10 07:37:41;;;;;;;20.98;3.75;;;;;;;;;;4966123;28;20027;-87
2022/06/10 07:41:56;;;;;;;21.95;4.65;;;;;;;;;;4963572;28;20049;-87
2022/06/10 07:42:54;;;;;;;11.00;4.00;;;;;;;;;;4982477;28;20035;-86
2022/06/10 07:45:20;;;;;;;11.55;3.88;;;;;;;;;;4968693;28;20390;-86
2022/06/10 07:47:46;;;;;;;12.02;4.00;;;;;;;;;;4964487;28;20057;-87
2022/06/10 07:50:12;;;;;;;13.15;4.30;;;;;;;;;;4961263;28;20055;-88
2022/06/10 07:52:38;;;;;;;11.45;4.47;;;;;;;;;;4966959;28;20030;-86
2022/06/10 07:55:05;;;;;;;15.95;4.25;;;;;;;;;;4971251;28;20030;-87
2022/06/10 07:57:31;;;;;;;11.13;3.40;;;;;;;;;;4972043;28;20054;-87
2022/06/10 07:59:57;;;;;;;14.95;4.43;;;;;;;;;;4968528;28;20070;-87
2022/06/10 08:02:23;;;;;;;16.08;4.88;;;;;;;;;;4964034;28;20486;-87
2022/06/10 08:04:49;;;;;;;16.15;4.20;;;;;;;;;;4986620;28;20390;-87
2022/06/10 08:07:15;;;;;;;6.93;3.28;;;;;;;;;;4990497;28;20034;-87
2022/06/10 08:09:41;;;;;;;14.80;4.03;;;;;;;;;;4963462;28;20015;-87
2022/06/10 08:12:07;;;;;;;12.10;4.22;;;;;;;;;;4973827;28;20030;-88
2022/06/10 08:14:33;;;;;;;14.75;3.53;;;;;;;;;;4973877;28;20069;-87
2022/06/10 08:17:03;;;;;;;14.73;5.00;;;;;;;;;;4970134;28;20469;-87
2022/06/10 08:19:29;;;;;;;6.95;3.78;;;;;;;;;;4971606;28;20048;-87
2022/06/10 08:24:40;;;;;;;9.05;3.60;;;;;;;;;;4990590;28;20049;-86
2022/06/10 08:27:06;;;;;;;9.00;4.07;;;;;;;;;;4973052;28;20030;-87
2022/06/10 08:29:32;;;;;;;11.70;4.45;;;;;;;;;;4971491;28;20069;-87
2022/06/10 08:31:58;;;;;;;9.80;4.85;;;;;;;;;;4964852;28;20573;-87
2022/06/10 08:34:24;;;;;;;20.10;4.40;;;;;;;;;;4970025;28;20022;-87
2022/06/10 08:36:50;;;;;;;11.95;4.45;;;;;;;;;;4971154;28;20053;-87
2022/06/10 08:39:16;;;;;;;15.38;5.10;;;;;;;;;;4969688;28;20034;-86
2022/06/10 08:41:46;;;;;;;11.35;4.70;;;;;;;;;;4972403;28;20426;-86
2022/06/10 08:44:14;;;;;;;16.92;5.78;;;;;;;;;;4972503;28;20281;-87
2022/06/10 08:46:40;;;;;;;11.70;5.10;;;;;;;;;;4968927;28;20049;-87
2022/06/10 08:49:15;;;;;;;12.55;4.90;;;;;;;;;;4968531;28;20128;-87
2022/06/10 08:51:44;;;;;;;16.33;5.47;;;;;;;;;;4974438;28;20033;-86
2022/06/10 08:54:29;;;;;;;18.42;5.68;;;;;;;;;;4974591;28;20293;-87
2022/06/10 08:56:58;;;;;;;16.30;5.57;;;;;;;;;;4962480;28;20034;-87
2022/06/10 08:59:31;;;;;;;14.90;5.03;;;;;;;;;;4980716;28;20097;-86
2022/06/10 09:02:02;;;;;;;27.67;5.40;;;;;;;;;;4965073;28;20065;-87
2022/06/10 09:04:34;;;;;;;12.32;5.65;;;;;;;;;;4971934;28;20069;-87
2022/06/10 09:07:02;;;;;;;14.93;5.20;;;;;;;;;;4962139;28;20031;-86
2022/06/10 09:09:30;;;;;;;15.15;4.82;;;;;;;;;;4974158;28;20046;-87
2022/06/10 09:12:12;;;;;;;11.05;4.38;;;;;;;;;;4965715;28;20117;-87
2022/06/10 09:14:39;;;;;;;19.77;5.97;;;;;;;;;;4973178;28;20394;-87
2022/06/10 09:17:17;;;;;;;16.58;4.60;;;;;;;;;;4964856;28;20080;-86
2022/06/10 09:20:02;;;;;;;15.05;5.22;;;;;;;;;;4979249;28;20034;-87
2022/06/10 09:22:36;;;;;;;11.93;5.38;;;;;;;;;;4966781;28;20042;-87
2022/06/10 09:25:06;;;;;;;17.75;4.90;;;;;;;;;;4971598;28;20038;-87
2022/06/10 09:27:34;;;;;;;17.83;5.60;;;;;;;;;;4971278;28;20070;-87
2022/06/10 09:30:07;;;;;;;20.17;4.85;;;;;;;;;;4980548;28;20515;-87
2022/06/10 09:32:36;;;;;;;15.27;4.82;;;;;;;;;;4969631;28;20066;-87
2022/06/10 09:35:07;;;;;;;17.20;5.35;;;;;;;;;;4971420;28;20026;-87
2022/06/10 09:37:49;;;;;;;9.05;4.60;;;;;;;;;;4974825;28;20493;-87
2022/06/10 09:40:38;;;;;;;24.77;6.07;;;;;;;;;;4977927;28;20042;-87
2022/06/10 09:43:07;;;;;;;11.85;4.90;;;;;;;;;;4968343;28;20030;-87
2022/06/10 09:45:45;;;;;;;17.02;6.10;;;;;;;;;;4964452;28;20038;-87
2022/06/10 09:48:11;;;;;;;17.52;4.88;;;;;;;;;;4973433;28;20389;-87
2022/06/10 09:50:50;;;;;;;8.88;4.65;;;;;;;;;;4966570;28;20582;-87
2022/06/10 09:53:36;;;;;;;15.93;5.18;;;;;;;;;;4970649;28;20470;-87
2022/06/10 09:56:17;;;;;;;10.13;4.03;;;;;;;;;;4967639;28;20490;-87
2022/06/10 09:59:02;;;;;;;11.02;4.82;;;;;;;;;;4971971;28;20030;-87
2022/06/10 10:01:44;;;;;;;11.35;4.00;;;;;;;;;;4966806;28;20022;-87
2022/06/10 10:04:19;;;;;;;9.60;4.15;;;;;;;;;;4981802;28;20034;-86
2022/06/10 10:06:55;;;;;;;15.00;5.20;;;;;;;;;;4967315;28;20064;-87
2022/06/10 10:09:39;;;;;;;8.57;3.90;;;;;;;;;;4965997;28;20865;-87
2022/06/10 10:12:08;;;;;;;17.80;4.78;;;;;;;;;;4966755;28;20293;-87
2022/06/10 10:14:50;;;;;;;19.65;4.32;;;;;;;;;;4969448;28;20045;-87
2022/06/10 10:17:16;;;;;;;18.67;4.20;;;;;;;;;;4966604;28;20026;-85
2022/06/10 10:19:57;;;;;;;15.50;5.57;;;;;;;;;;4970780;28;20038;-87
2022/06/10 10:22:39;;;;;;;22.90;5.25;;;;;;;;;;4963358;28;20556;-87
2022/06/10 10:25:05;;;;;;;10.43;5.10;;;;;;;;;;4971283;28;20501;-87
2022/06/10 10:27:32;;;;;;;16.98;6.30;;;;;;;;;;4968809;28;20054;-87
2022/06/10 10:30:19;;;;;;;19.70;6.63;;;;;;;;;;4967362;28;21155;-87
2022/06/10 10:32:45;;;;;;;;;;;;;;;;;;4969946;28;20046;-87
2022/06/10 10:35:24;;;;;;;16.85;5.47;;;;;;;;;;4985177;28;19964;-87
2022/06/10 10:37:58;;;;;;;20.85;5.50;;;;;;;;;;4967679;28;20025;-87
2022/06/10 10:40:32;;;;;;;19.20;5.60;;;;;;;;;;4977777;28;20336;-87
2022/06/10 10:43:02;;;;;;;21.10;6.13;;;;;;;;;;4965358;28;20046;-88
2022/06/10 10:45:32;;;;;;;11.95;4.72;;;;;;;;;;4982588;28;20038;-87
2022/06/10 10:48:13;;;;;;;12.55;5.60;;;;;;;;;;4963994;28;20037;-87
2022/06/10 10:51:04;;;;;;;16.83;5.10;;;;;;;;;;4965974;28;20046;-87
2022/06/10 10:53:35;;;;;;;15.38;5.15;;;;;;;;;;4964203;28;20046;-88
2022/06/10 10:56:01;;;;;;;21.55;5.10;;;;;;;;;;4971651;28;20030;-87
2022/06/10 10:58:30;;;;;;;11.70;4.88;;;;;;;;;;4970536;28;20031;-87
2022/06/10 11:00:59;;;;;;;18.77;5.05;;;;;;;;;;4968364;28;20022;-87
2022/06/10 11:03:28;;;;;;;14.95;4.65;;;;;;;;;;4962489;28;20486;-87
2022/06/10 11:05:55;;;;;;;13.85;5.03;;;;;;;;;;4963420;28;20096;-87
2022/06/10 11:08:32;;;;;;;12.70;5.18;;;;;;;;;;4963926;28;20109;-87
2022/06/10 11:11:01;;;;;;;14.73;5.43;;;;;;;;;;4962190;28;20122;-87
2022/06/10 11:13:45;;;;;;;17.20;5.60;;;;;;;;;;4957455;28;20511;-87
2022/06/10 11:16:26;;;;;;;12.05;4.28;;;;;;;;;;4961180;28;20479;-87
2022/06/10 11:19:02;;;;;;;7.55;3.97;;;;;;;;;;4961785;28;20053;-87
2022/06/10 11:21:28;;;;;;;9.45;3.05;;;;;;;;;;4966369;28;20377;-87
2022/06/10 11:23:56;;;;;;;9.60;4.55;;;;;;;;;;4957969;28;20077;-87
2022/06/10 11:26:22;;;;;;;17.95;4.68;;;;;;;;;;4971426;28;20066;-87
2022/06/10 11:28:49;;;;;;;19.17;5.07;;;;;;;;;;4964961;28;20023;-88
2022/06/10 11:31:18;;;;;;;10.93;4.60;;;;;;;;;;4983336;28;20037;-86
2022/06/10 11:33:46;;;;;;;8.98;3.28;;;;;;;;;;4984444;28;20622;-88
2022/06/10 11:36:13;;;;;;;14.93;4.20;;;;;;;;;;4967237;28;20038;-88
2022/06/10 11:38:54;;;;;;;8.32;4.30;;;;;;;;;;4983855;28;20030;-87
2022/06/10 11:41:28;;;;;;;8.80;4.43;;;;;;;;;;4972131;28;20030;-87
2022/06/10 11:43:59;;;;;;;11.93;4.50;;;;;;;;;;4968347;28;20089;-87
2022/06/10 11:46:33;;;;;;;11.77;4.60;;;;;;;;;;4967019;28;20363;-87
2022/06/10 11:49:23;;;;;;;14.25;4.40;;;;;;;;;;4975834;28;20047;-87
2022/06/10 11:51:58;;;;;;;10.45;3.80;;;;;;;;;;4972980;28;20238;-86
2022/06/10 11:54:43;;;;;;;14.98;4.38;;;;;;;;;;4966274;28;20416;-86
2022/06/10 12:00:10;;;;;;;10.43;4.60;;;;;;;;;;4974562;28;20942;-87
2022/06/10 12:02:42;;;;;;;16.17;4.53;;;;;;;;;;4977467;28;20216;-87
2022/06/10 12:05:24;;;;;;;13.32;4.40;;;;;;;;;;4967061;28;20426;-86
2022/06/10 12:07:56;;;;;;;13.15;4.45;;;;;;;;;;4967312;28;20662;-87
2022/06/10 12:10:24;;;;;;;13.15;4.28;;;;;;;;;;4967636;28;20027;-87
2022/06/10 12:12:53;;;;;;;7.90;3.78;;;;;;;;;;4987285;28;20034;-87
2022/06/10 12:15:24;;;;;;;6.47;3.30;;;;;;;;;;4967540;28;20023;-87
2022/06/10 12:17:52;;;;;;;11.77;3.58;;;;;;;;;;4968902;28;20509;-86
2022/06/10 12:20:40;;;;;;;11.23;3.63;;;;;;;;;;4970143;28;20035;-87
2022/06/10 12:23:12;;;;;;;13.85;3.38;;;;;;;;;;4974734;28;20042;-88
2022/06/10 12:25:53;;;;;;;10.80;3.67;;;;;;;;;;4986894;28;20030;-87
2022/06/10 12:28:32;;;;;;;14.57;4.50;;;;;;;;;;4972936;28;20030;-86
2022/06/10 12:31:01;;;;;;;10.15;3.67;;;;;;;;;;4968925;28;20046;-87
2022/06/10 12:33:30;;;;;;;13.93;3.72;;;;;;;;;;4981323;28;20022;-87
2022/06/10 12:35:56;;;;;;;14.95;4.57;;;;;;;;;;4970320;28;20121;-87
2022/06/10 12:38:24;;;;;;;14.93;4.47;;;;;;;;;;4970534;28;20117;-87
2022/06/10 12:40:54;;;;;;;11.02;4.03;;;;;;;;;;4968119;28;20034;-86
2022/06/10 12:43:40;;;;;;;12.38;4.28;;;;;;;;;;4987026;28;20093;-87
2022/06/10 12:46:12;;;;;;;12.20;4.60;;;;;;;;;;4971038;28;20438;-86
2022/06/10 12:48:44;;;;;;;11.50;4.82;;;;;;;;;;4968782;28;20395;-87
2022/06/10 12:51:13;;;;;;;10.32;4.10;;;;;;;;;;4961932;28;20046;-87
2022/06/10 12:53:49;;;;;;;6.45;2.95;;;;;;;;;;4984638;28;20482;-86
2022/06/10 12:56:22;;;;;;;24.95;4.72;;;;;;;;;;4969717;28;20495;-87
2022/06/10 12:58:50;;;;;;;14.82;4.50;;;;;;;;;;4975263;28;20042;-87
2022/06/10 13:01:24;;;;;;;17.20;3.95;;;;;;;;;;4981263;28;20490;-87
2022/06/10 13:03:52;;;;;;;17.15;5.18;;;;;;;;;;4982486;28;20042;-87
2022/06/10 13:06:30;;;;;;;13.10;4.60;;;;;;;;;;4982649;28;20482;-87
2022/06/10 13:09:06;;;;;;;15.63;3.88;;;;;;;;;;4979859;28;20034;-87
2022/06/10 13:11:35;;;;;;;14.18;5.18;;;;;;;;;;4973577;28;20175;-86
2022/06/10 13:14:12;;;;;;;13.05;4.97;;;;;;;;;;4975821;28;20042;-87
2022/06/10 13:16:43;;;;;;;12.43;5.10;;;;;;;;;;4964510;28;20547;-86
2022/06/10 13:19:21;;;;;;;17.60;4.70;;;;;;;;;;4968172;28;20030;-87
2022/06/10 13:21:47;;;;;;;16.13;4.40;;;;;;;;;;4970012;28;20049;-87
2022/06/10 13:24:15;;;;;;;16.00;4.15;;;;;;;;;;4969217;28;20030;-87
2022/06/10 13:26:41;;;;;;;16.85;4.60;;;;;;;;;;4973781;28;20490;-87
2022/06/10 13:29:11;;;;;;;8.98;4.22;;;;;;;;;;4972106;28;20560;-86
2022/06/10 13:31:46;;;;;;;13.15;4.18;;;;;;;;;;4971018;28;20504;-87
2022/06/10 13:34:18;;;;;;;4.50;2.63;;;;;;;;;;4987205;28;20014;-88
2022/06/10 13:36:47;;;;;;;7.60;3.38;;;;;;;;;;4977473;28;20572;-86
2022/06/10 13:39:22;;;;;;;9.93;3.40;;;;;;;;;;4979058;28;20030;-86
2022/06/10 13:41:48;;;;;;;;;;;;;;;;;;4963073;28;20053;-87
2022/06/10 13:44:30;;;;;;;18.95;3.78;;;;;;;;;;4974465;28;19909;-88
2022/06/10 13:46:57;;;;;;;11.82;3.63;;;;;;;;;;4966240;28;20037;-88
2022/06/10 13:49:51;;;;;;;9.27;3.25;;;;;;;;;;4980967;28;20046;-87
2022/06/10 13:52:20;;;;;;;5.72;2.67;;;;;;;;;;4970217;28;20072;-88
2022/06/10 13:54:46;;;;;;;10.85;2.33;;;;;;;;;;4969758;28;20030;-88
2022/06/10 13:57:20;;;;;;;6.75;2.65;;;;;;;;;;4964618;28;20407;-87
2022/06/10 13:59:56;;;;;;;6.68;2.50;;;;;;;;;;4964496;28;20048;-87
2022/06/10 14:02:27;;;;;;;5.18;2.50;;;;;;;;;;4963048;28;20031;-87
2022/06/10 14:04:54;;;;;;;10.90;1.75;;;;;;;;;;4965079;28;20041;-87
2022/06/10 14:07:20;;;;;;;10.50;2.97;;;;;;;;;;4984682;28;20053;-88
2022/06/10 14:09:46;;;;;;;7.10;2.53;;;;;;;;;;4961207;28;20499;-87
2022/06/10 14:12:19;;;;;;;7.00;2.17;;;;;;;;;;4964262;28;20058;-87
2022/06/10 14:14:47;;;;;;;4.65;2.50;;;;;;;;;;4967062;28;20109;-87
2022/06/10 14:17:13;;;;;;;8.43;2.35;;;;;;;;;;4969867;28;20569;-87
2022/06/10 14:19:47;;;;;;;5.65;1.80;;;;;;;;;;4970617;28;20069;-87
2022/06/10 14:22:33;;;;;;;7.25;2.08;;;;;;;;;;4970788;28;20553;-86
2022/06/10 14:25:14;;;;;;;6.47;1.70;;;;;;;;;;4983122;28;20093;-87
2022/06/10 14:27:45;;;;;;;11.65;2.90;;;;;;;;;;4971380;28;20042;-87
2022/06/10 14:30:23;;;;;;;8.75;2.35;;;;;;;;;;4965390;28;20077;-88
2022/06/10 14:33:00;;;;;;;10.25;1.90;;;;;;;;;;4963141;28;20452;-87
2022/06/10 14:35:37;;;;;;;8.90;2.10;;;;;;;;;;4967131;28;20049;-87
2022/06/10 14:38:12;;;;;;;4.20;1.60;;;;;;;;;;4969538;28;20419;-87
2022/06/10 14:40:55;;;;;;;8.23;1.75;;;;;;;;;;4968183;28;20077;-88
2022/06/10 14:43:23;;;;;;;3.92;2.15;;;;;;;;;;4966753;28;20045;-87
2022/06/10 14:46:01;;;;;;;9.63;2.20;;;;;;;;;;4969236;28;20507;-87
2022/06/10 14:48:30;;;;;;;10.70;2.50;;;;;;;;;;4969322;28;20582;-88
2022/06/10 14:51:11;;;;;;;9.85;2.30;;;;;;;;;;4984462;28;20627;-87
2022/06/10 14:53:39;;;;;;;7.88;2.50;;;;;;;;;;4966481;28;20034;-88
2022/06/10 14:56:13;;;;;;;6.50;1.88;;;;;;;;;;4968856;28;20038;-87
2022/06/10 14:58:39;;;;;;;6.65;1.75;;;;;;;;;;4960405;28;20041;-88
2022/06/10 15:01:05;;;;;;;7.30;2.58;;;;;;;;;;4966778;28;20589;-88
2022/06/10 15:03:31;;;;;;;4.95;2.05;;;;;;;;;;4977624;28;20085;-87